Portada
METAR-TAF:

METAR-TAF

Aeroports :

York Airport

York, Pennsilvània, Estats Units d'Amèrica

latitud: 39-55-10N, longitud: 076-52-37W, altitud: 146 m

Observació

L'informe es va fer fa 8 minuts, a les 12:53 UTC
Vent 8 kt del Sud/Sud-Oest
Temperatura 22°C
Humitat 65%
Pressió 1012 hPa
Visibilitat: 16.1 km
Núvols disperses a una alçada de 9000 ft
Cel ennuvolat a una alçada de 12000 ft

METAR: KTHV 161253Z AUTO 20008KT 10SM SCT090 BKN120 22/15 A2988 RMK AO2 SLP116 T02220150

Hora: 09:01 (13:01 UTC)


TAF: manca

Observacions i pronòstics meteorològics de més de 4000 aeroports (METAR i TAF).

Les estacions disponibles són els punts grocs i vermells al mapa.

Posi el ratolí al punt desitjat per veure el nom de l'estació.

Feu clic per veure les observacions i els pronòstics meteorològics.

Per canviar el mapa: feu clic els botons verds amb una creu de color negre per apropar; al botó verd amb un guió per allunyar la imatge; o en les fletxes verdes per a mapes adjacents.


METAR-TAF: